createdAt,value
2023-02-14T00:00:00.390Z,39.00
2023-02-14T00:01:00.731Z,28.80
2023-02-14T00:02:00.400Z,34.00
2023-02-14T00:03:00.616Z,35.80
2023-02-14T00:04:00.354Z,29.40
2023-02-14T00:05:00.399Z,31.90
2023-02-14T00:06:00.341Z,38.40
2023-02-14T00:07:00.325Z,33.30
2023-02-14T00:08:00.331Z,33.00
2023-02-14T00:09:00.302Z,36.00
2023-02-14T00:10:00.295Z,32.30
2023-02-14T00:11:00.669Z,30.80
2023-02-14T00:12:00.284Z,36.90
2023-02-14T00:13:00.282Z,33.70
2023-02-14T00:14:00.257Z,31.30
2023-02-14T00:15:00.232Z,36.40
2023-02-14T00:16:00.313Z,34.30
2023-02-14T00:17:00.216Z,34.80
2023-02-14T00:18:00.225Z,34.90
2023-02-14T00:19:00.195Z,36.50
2023-02-14T00:20:00.195Z,36.10
2023-02-14T00:21:00.404Z,34.60
2023-02-14T00:22:00.188Z,34.00
2023-02-14T00:23:00.166Z,36.50
2023-02-14T00:24:00.144Z,35.80
2023-02-14T00:25:00.149Z,35.40
2023-02-14T00:26:00.143Z,37.40
2023-02-14T00:27:00.126Z,33.30
2023-02-14T00:28:00.130Z,36.20
2023-02-14T00:29:00.115Z,34.00
2023-02-14T00:30:00.126Z,32.50
2023-02-14T00:31:00.455Z,38.10
2023-02-14T00:32:00.192Z,34.10
2023-02-14T00:33:00.096Z,30.40
2023-02-14T00:34:00.069Z,35.90
2023-02-14T00:35:00.032Z,33.00
2023-02-14T00:36:00.050Z,33.40
2023-02-14T00:37:00.025Z,34.30
2023-02-14T00:38:00.023Z,37.30
2023-02-14T00:38:59.989Z,33.00
2023-02-14T00:39:59.993Z,34.20
2023-02-14T00:41:00.262Z,37.50
2023-02-14T00:41:59.959Z,37.20
2023-02-14T00:42:59.962Z,34.70
2023-02-14T00:43:59.943Z,34.00
2023-02-14T00:44:59.946Z,36.90
2023-02-14T00:45:59.989Z,35.30
2023-02-14T00:46:59.923Z,35.20
2023-02-14T00:47:59.948Z,35.20
2023-02-14T00:48:59.898Z,33.80
2023-02-14T00:49:59.886Z,33.20
2023-02-14T00:51:00.230Z,40.30
2023-02-14T00:51:59.875Z,38.10
2023-02-14T00:52:59.862Z,31.10
2023-02-14T00:53:59.846Z,41.40
2023-02-14T00:54:59.825Z,34.40
2023-02-14T00:55:59.815Z,42.10
2023-02-14T00:56:59.816Z,39.60
2023-02-14T00:57:59.820Z,33.70
2023-02-14T00:58:59.777Z,35.00
2023-02-14T00:59:59.778Z,35.90
2023-02-14T01:01:00.278Z,35.10
2023-02-14T01:01:59.766Z,36.00
2023-02-14T01:02:59.754Z,35.80
2023-02-14T01:03:59.740Z,29.90
2023-02-14T01:04:59.747Z,35.00
2023-02-14T01:05:59.717Z,39.40
2023-02-14T01:06:59.709Z,37.80
2023-02-14T01:07:59.722Z,30.30
2023-02-14T01:08:59.688Z,37.80
2023-02-14T01:09:59.700Z,34.00
2023-02-14T01:11:00.045Z,32.70
2023-02-14T01:11:59.654Z,34.30
2023-02-14T01:12:59.689Z,31.10
2023-02-14T01:13:59.650Z,31.70
2023-02-14T01:14:59.618Z,32.40
2023-02-14T01:15:59.613Z,34.10
2023-02-14T01:16:59.598Z,29.60
2023-02-14T01:17:59.610Z,35.80
2023-02-14T01:18:59.572Z,32.20
2023-02-14T01:19:59.571Z,36.40
2023-02-14T01:20:59.911Z,32.30
2023-02-14T01:21:59.551Z,37.30
2023-02-14T01:22:59.549Z,36.40
2023-02-14T01:23:59.530Z,33.60
2023-02-14T01:24:59.512Z,30.80
2023-02-14T01:25:59.503Z,31.50
2023-02-14T01:26:59.496Z,32.20
2023-02-14T01:27:59.509Z,35.00
2023-02-14T01:28:59.475Z,28.60
2023-02-14T01:29:59.544Z,32.60
2023-02-14T01:30:59.769Z,27.40
2023-02-14T01:31:59.501Z,24.40
2023-02-14T01:32:59.446Z,26.80
2023-02-14T01:33:59.438Z,29.30
2023-02-14T01:34:59.408Z,27.70
2023-02-14T01:35:59.404Z,28.10
2023-02-14T01:36:59.395Z,24.60
2023-02-14T01:37:59.401Z,30.30
2023-02-14T01:38:59.380Z,31.50
2023-02-14T01:39:59.424Z,29.40
2023-02-14T01:40:59.564Z,28.70
2023-02-14T01:41:59.348Z,29.00
2023-02-14T01:42:59.341Z,28.80
2023-02-14T01:43:59.366Z,27.80
2023-02-14T01:44:59.316Z,29.30
2023-02-14T01:45:59.326Z,27.10
2023-02-14T01:46:59.282Z,28.60
2023-02-14T01:47:59.305Z,31.70
2023-02-14T01:48:59.269Z,27.20
2023-02-14T01:49:59.264Z,28.80
2023-02-14T01:50:59.538Z,27.20
2023-02-14T01:51:59.244Z,27.30
2023-02-14T01:52:59.504Z,27.30
2023-02-14T01:53:59.224Z,35.70
2023-02-14T01:54:59.196Z,30.50
2023-02-14T01:55:59.196Z,26.50
2023-02-14T01:56:59.199Z,29.20
2023-02-14T01:57:59.210Z,29.30
2023-02-14T01:58:59.175Z,32.10
2023-02-14T01:59:59.157Z,35.90
2023-02-14T02:00:59.703Z,29.10
2023-02-14T02:01:59.176Z,27.10
2023-02-14T02:02:59.158Z,29.40
2023-02-14T02:03:59.120Z,36.80
2023-02-14T02:04:59.109Z,29.20
2023-02-14T02:05:59.112Z,26.70
2023-02-14T02:06:59.080Z,28.60
2023-02-14T02:07:59.090Z,33.30
2023-02-14T02:08:59.086Z,29.30
2023-02-14T02:09:59.062Z,28.10
2023-02-14T02:10:59.336Z,30.90
2023-02-14T02:11:59.045Z,30.10
2023-02-14T02:12:59.032Z,28.20
2023-02-14T02:13:59.020Z,28.50
2023-02-14T02:14:59.003Z,29.00
2023-02-14T02:15:59.010Z,24.20
2023-02-14T02:16:59.032Z,25.80
2023-02-14T02:17:58.994Z,29.80
2023-02-14T02:18:58.962Z,31.80
2023-02-14T02:19:58.965Z,32.40
2023-02-14T02:20:59.244Z,32.90
2023-02-14T02:21:58.943Z,28.80
2023-02-14T02:22:58.943Z,29.80
2023-02-14T02:23:58.916Z,31.60
2023-02-14T02:24:58.908Z,29.90
2023-02-14T02:25:58.898Z,25.40
2023-02-14T02:26:58.888Z,22.10
2023-02-14T02:27:58.884Z,30.20
2023-02-14T02:28:58.846Z,29.20
2023-02-14T02:29:58.874Z,25.30
2023-02-14T02:30:59.221Z,26.60
2023-02-14T02:31:58.994Z,27.50
2023-02-14T02:32:58.845Z,24.80
2023-02-14T02:33:58.820Z,23.10
2023-02-14T02:34:58.800Z,30.00
2023-02-14T02:35:58.792Z,30.40
2023-02-14T02:36:58.808Z,27.90
2023-02-14T02:37:58.801Z,26.90
2023-02-14T02:38:58.749Z,23.60
2023-02-14T02:39:58.746Z,27.10
2023-02-14T02:40:59.109Z,26.20
2023-02-14T02:41:58.720Z,28.40
2023-02-14T02:42:58.725Z,28.20
2023-02-14T02:43:58.709Z,32.00
2023-02-14T02:44:58.693Z,26.20
2023-02-14T02:45:58.759Z,28.70
2023-02-14T02:46:58.660Z,30.00
2023-02-14T02:47:58.694Z,32.30
2023-02-14T02:48:58.649Z,27.00
2023-02-14T02:49:58.641Z,26.30
2023-02-14T02:50:59.046Z,28.30
2023-02-14T02:51:58.621Z,27.60
2023-02-14T02:52:58.624Z,24.70
2023-02-14T02:53:58.617Z,27.60
2023-02-14T02:54:58.589Z,32.20
2023-02-14T02:55:58.586Z,30.60
2023-02-14T02:56:58.572Z,24.00
2023-02-14T02:57:58.566Z,28.60
2023-02-14T02:58:58.569Z,30.50
2023-02-14T02:59:58.540Z,28.50
2023-02-14T03:00:58.867Z,23.80
2023-02-14T03:01:58.524Z,23.30
2023-02-14T03:02:58.515Z,26.80
2023-02-14T03:03:58.520Z,21.40
2023-02-14T03:04:58.510Z,23.40
2023-02-14T03:05:58.494Z,20.80
2023-02-14T03:06:58.482Z,22.80
2023-02-14T03:07:58.464Z,22.50
2023-02-14T03:08:58.456Z,22.80
2023-02-14T03:09:58.435Z,25.90
2023-02-14T03:10:58.803Z,22.70
2023-02-14T03:11:58.420Z,24.40
2023-02-14T03:12:58.399Z,26.20
2023-02-14T03:13:58.420Z,22.60
2023-02-14T03:14:58.389Z,20.70
2023-02-14T03:15:58.427Z,21.90
2023-02-14T03:16:58.367Z,22.40
2023-02-14T03:17:58.363Z,21.40
2023-02-14T03:18:58.360Z,19.70
2023-02-14T03:19:58.346Z,21.30
2023-02-14T03:20:58.740Z,21.10
2023-02-14T03:21:58.311Z,19.70
2023-02-14T03:22:58.300Z,19.40
2023-02-14T03:23:58.312Z,22.50
2023-02-14T03:24:58.282Z,23.80
2023-02-14T03:25:58.282Z,19.70
2023-02-14T03:26:58.251Z,22.10
2023-02-14T03:27:58.252Z,21.00
2023-02-14T03:28:58.251Z,20.20
2023-02-14T03:29:58.333Z,20.50
2023-02-14T03:30:58.842Z,23.70
2023-02-14T03:31:58.293Z,23.10
2023-02-14T03:32:58.192Z,21.50
2023-02-14T03:33:58.206Z,28.30
2023-02-14T03:34:58.171Z,29.60
2023-02-14T03:35:58.166Z,27.10
2023-02-14T03:36:58.189Z,24.60
2023-02-14T03:37:58.159Z,26.20
2023-02-14T03:38:58.160Z,25.20
2023-02-14T03:39:58.134Z,28.00
2023-02-14T03:40:58.579Z,42.00
2023-02-14T03:41:58.107Z,41.90
2023-02-14T03:42:58.093Z,37.80
2023-02-14T03:43:58.119Z,44.20
2023-02-14T03:44:58.067Z,40.50
2023-02-14T03:45:58.117Z,43.00
2023-02-14T03:46:58.060Z,41.10
2023-02-14T03:47:58.053Z,36.40
2023-02-14T03:48:58.041Z,42.00
2023-02-14T03:49:58.029Z,36.00
2023-02-14T03:50:58.295Z,52.60
2023-02-14T03:51:58.005Z,52.50
2023-02-14T03:52:57.988Z,63.50
2023-02-14T03:53:58.020Z,79.00
2023-02-14T03:54:57.972Z,62.60
2023-02-14T03:55:57.967Z,57.20
2023-02-14T03:56:57.948Z,60.00
2023-02-14T03:57:57.948Z,56.20
2023-02-14T03:58:57.938Z,75.30
2023-02-14T03:59:57.922Z,67.20
2023-02-14T04:00:58.359Z,108.20
2023-02-14T04:01:57.989Z,72.90
2023-02-14T04:02:57.890Z,118.20
2023-02-14T04:03:57.932Z,101.60
2023-02-14T04:04:57.889Z,68.40
2023-02-14T04:05:57.859Z,105.10
2023-02-14T04:06:57.860Z,375.40
2023-02-14T04:07:57.845Z,222.30
2023-02-14T04:08:57.850Z,456.00
2023-02-14T04:09:57.816Z,326.90
2023-02-14T04:10:58.223Z,303.70
2023-02-14T04:11:57.791Z,353.10
2023-02-14T04:12:57.811Z,150.00
2023-02-14T04:13:57.790Z,108.20
2023-02-14T04:14:57.773Z,68.30
2023-02-14T04:15:57.865Z,38.20
2023-02-14T04:16:57.743Z,29.00
2023-02-14T04:17:57.729Z,65.80
2023-02-14T04:18:57.739Z,42.20
2023-02-14T04:19:57.705Z,108.10
2023-02-14T04:20:57.943Z,70.30
2023-02-14T04:21:57.691Z,59.60
2023-02-14T04:22:57.692Z,65.20
2023-02-14T04:23:57.685Z,70.10
2023-02-14T04:24:57.676Z,31.90
2023-02-14T04:25:57.646Z,28.00
2023-02-14T04:26:57.644Z,25.50
2023-02-14T04:27:57.628Z,30.30
2023-02-14T04:28:57.657Z,24.20
2023-02-14T04:29:57.638Z,53.40
2023-02-14T04:30:57.988Z,23.40
2023-02-14T04:31:57.639Z,36.50
2023-02-14T04:32:57.585Z,45.20
2023-02-14T04:33:57.613Z,43.40
2023-02-14T04:34:57.575Z,24.00
2023-02-14T04:35:57.543Z,26.60
2023-02-14T04:36:57.548Z,66.80
2023-02-14T04:37:57.532Z,20.60
2023-02-14T04:38:57.546Z,23.30
2023-02-14T04:39:57.508Z,22.80
2023-02-14T04:40:57.720Z,21.20
2023-02-14T04:41:57.478Z,29.80
2023-02-14T04:42:57.484Z,26.60
2023-02-14T04:43:57.481Z,25.70
2023-02-14T04:44:57.456Z,25.50
2023-02-14T04:45:57.438Z,31.10
2023-02-14T04:46:57.437Z,22.20
2023-02-14T04:47:57.436Z,31.60
2023-02-14T04:48:57.433Z,29.70
2023-02-14T04:49:57.399Z,20.50
2023-02-14T04:50:57.527Z,27.70
2023-02-14T04:51:57.377Z,46.30
2023-02-14T04:52:57.385Z,48.30
2023-02-14T04:53:57.370Z,37.50
2023-02-14T04:54:57.352Z,47.00
2023-02-14T04:55:57.341Z,37.90
2023-02-14T04:56:58.288Z,42.00
2023-02-14T04:57:57.329Z,107.90
2023-02-14T04:58:57.329Z,66.10
2023-02-14T04:59:57.298Z,318.60
2023-02-14T05:00:57.312Z,44.50
2023-02-14T05:01:57.374Z,21.50
2023-02-14T05:02:57.261Z,82.50
2023-02-14T05:03:57.274Z,63.50
2023-02-14T05:04:57.252Z,33.00
2023-02-14T05:05:57.231Z,52.20
2023-02-14T05:06:57.232Z,40.80
2023-02-14T05:07:57.222Z,74.70
2023-02-14T05:08:57.227Z,51.60
2023-02-14T05:09:57.194Z,20.40
2023-02-14T05:10:57.377Z,22.80
2023-02-14T05:11:57.195Z,24.10
2023-02-14T05:12:57.178Z,25.70
2023-02-14T05:13:57.173Z,135.10
2023-02-14T05:14:57.143Z,22.90
2023-02-14T05:15:57.202Z,20.10
2023-02-14T05:16:57.125Z,104.00
2023-02-14T05:17:57.114Z,17.70
2023-02-14T05:18:57.123Z,24.70
2023-02-14T05:19:57.123Z,87.90
2023-02-14T05:20:57.478Z,298.10
2023-02-14T05:21:57.071Z,45.70
2023-02-14T05:22:57.063Z,51.90
2023-02-14T05:23:57.066Z,269.80
2023-02-14T05:24:57.044Z,130.50
2023-02-14T05:25:57.080Z,49.30
2023-02-14T05:26:57.022Z,28.40
2023-02-14T05:27:57.008Z,42.20
2023-02-14T05:28:57.279Z,29.20
2023-02-14T05:29:57.005Z,44.80
2023-02-14T05:30:57.046Z,17.30
2023-02-14T05:31:56.968Z,35.90
2023-02-14T05:32:56.965Z,85.90
2023-02-14T05:33:56.964Z,48.90
2023-02-14T05:34:56.946Z,19.10
2023-02-14T05:35:56.953Z,18.70
2023-02-14T05:36:56.947Z,22.70
2023-02-14T05:37:56.907Z,58.90
2023-02-14T05:38:56.917Z,17.60
2023-02-14T05:39:56.880Z,39.70
2023-02-14T05:40:57.237Z,23.00
2023-02-14T05:41:59.075Z,21.90
2023-02-14T05:42:56.856Z,18.20
2023-02-14T05:43:56.865Z,25.20
2023-02-14T05:44:56.838Z,21.90
2023-02-14T05:45:56.872Z,19.20
2023-02-14T05:46:56.820Z,61.20
2023-02-14T05:47:56.801Z,63.20
2023-02-14T05:48:56.834Z,57.10
2023-02-14T05:49:56.791Z,25.90
2023-02-14T05:50:56.787Z,74.10
2023-02-14T05:51:56.772Z,42.40
2023-02-14T05:52:56.780Z,60.50
2023-02-14T05:53:56.792Z,99.80
2023-02-14T05:54:56.750Z,60.80
2023-02-14T05:55:56.726Z,20.50
2023-02-14T05:56:56.716Z,18.80
2023-02-14T05:57:56.705Z,20.10
2023-02-14T05:58:56.698Z,28.50
2023-02-14T05:59:56.708Z,65.60
2023-02-14T06:00:56.683Z,23.80
2023-02-14T06:01:56.697Z,22.20
2023-02-14T06:02:56.658Z,23.20
2023-02-14T06:03:56.650Z,21.30
2023-02-14T06:04:56.649Z,29.10
2023-02-14T06:05:56.652Z,20.40
2023-02-14T06:06:56.625Z,29.70
2023-02-14T06:07:56.603Z,30.90
2023-02-14T06:08:56.594Z,23.00
2023-02-14T06:09:56.603Z,27.00
2023-02-14T06:10:56.573Z,26.20
2023-02-14T06:11:56.572Z,19.90
2023-02-14T06:12:56.563Z,57.00
2023-02-14T06:13:56.552Z,37.30
2023-02-14T06:14:56.556Z,95.90
2023-02-14T06:15:56.525Z,99.50
2023-02-14T06:16:56.619Z,52.80
2023-02-14T06:17:56.538Z,35.90
2023-02-14T06:18:56.464Z,25.90
2023-02-14T06:19:56.496Z,33.80
2023-02-14T06:20:56.477Z,26.10
2023-02-14T06:21:56.465Z,26.20
2023-02-14T06:22:56.445Z,26.70
2023-02-14T06:23:56.449Z,27.70
2023-02-14T06:24:56.458Z,53.80
2023-02-14T06:25:56.445Z,70.10
2023-02-14T06:26:56.368Z,39.20
2023-02-14T06:27:56.407Z,24.00
2023-02-14T06:28:56.414Z,22.10
2023-02-14T06:29:56.407Z,33.30
2023-02-14T06:30:56.453Z,65.90
2023-02-14T06:31:56.465Z,71.40
2023-02-14T06:32:56.315Z,48.80
2023-02-14T06:33:56.306Z,29.80
2023-02-14T06:34:56.317Z,39.00
2023-02-14T06:35:56.270Z,90.60
2023-02-14T06:36:56.253Z,45.20
2023-02-14T06:37:56.249Z,32.60
2023-02-14T06:38:56.231Z,23.80
2023-02-14T06:39:56.272Z,25.70
2023-02-14T06:40:56.210Z,27.30
2023-02-14T06:41:56.210Z,39.00
2023-02-14T06:42:56.201Z,45.80
2023-02-14T06:43:56.191Z,54.00
2023-02-14T06:44:56.192Z,69.40
2023-02-14T06:45:56.226Z,53.40
2023-02-14T06:46:56.148Z,46.20
2023-02-14T06:47:56.144Z,113.30
2023-02-14T06:48:56.154Z,27.40
2023-02-14T06:49:56.161Z,58.80
2023-02-14T06:50:56.111Z,43.30
2023-02-14T06:51:56.114Z,97.40
2023-02-14T06:52:56.101Z,38.70
2023-02-14T06:53:56.085Z,33.20
2023-02-14T06:54:56.094Z,29.90
2023-02-14T06:55:56.065Z,38.50
2023-02-14T06:56:56.046Z,31.40
2023-02-14T06:57:56.043Z,43.80
2023-02-14T06:58:56.026Z,56.10
2023-02-14T06:59:56.059Z,43.00
2023-02-14T07:00:56.011Z,29.80
2023-02-14T07:01:56.007Z,27.20
2023-02-14T07:02:56.023Z,40.80
2023-02-14T07:03:55.986Z,31.30
2023-02-14T07:04:56.001Z,39.90
2023-02-14T07:05:55.966Z,61.20
2023-02-14T07:06:55.956Z,86.00
2023-02-14T07:07:55.938Z,48.30
2023-02-14T07:08:55.928Z,31.90
2023-02-14T07:09:55.949Z,26.70
2023-02-14T07:10:55.910Z,30.30
2023-02-14T07:11:55.899Z,84.10
2023-02-14T07:12:55.891Z,60.40
2023-02-14T07:13:55.896Z,32.20
2023-02-14T07:14:55.898Z,32.70
2023-02-14T07:15:55.986Z,30.40
2023-02-14T07:16:55.858Z,25.90
2023-02-14T07:17:55.841Z,46.60
2023-02-14T07:18:55.834Z,23.90
2023-02-14T07:19:55.864Z,52.70
2023-02-14T07:20:55.814Z,22.40
2023-02-14T07:21:55.803Z,25.00
2023-02-14T07:22:55.792Z,28.00
2023-02-14T07:23:55.785Z,22.30
2023-02-14T07:24:55.787Z,27.00
2023-02-14T07:25:55.788Z,23.00
2023-02-14T07:26:55.783Z,22.90
2023-02-14T07:27:55.759Z,23.70
2023-02-14T07:28:55.734Z,26.20
2023-02-14T07:29:56.037Z,21.50
2023-02-14T07:30:55.820Z,24.10
2023-02-14T07:31:55.876Z,19.70
2023-02-14T07:32:55.689Z,17.90
2023-02-14T07:33:55.703Z,20.30
2023-02-14T07:34:55.706Z,18.50
2023-02-14T07:35:55.669Z,21.70
2023-02-14T07:36:55.666Z,19.50
2023-02-14T07:37:55.660Z,18.00
2023-02-14T07:38:55.627Z,19.10
2023-02-14T07:39:55.649Z,17.90
2023-02-14T07:40:55.605Z,25.40
2023-02-14T07:41:55.598Z,20.40
2023-02-14T07:42:55.584Z,20.50
2023-02-14T07:43:55.579Z,20.20
2023-02-14T07:44:55.589Z,19.60
2023-02-14T07:45:55.600Z,22.80
2023-02-14T07:46:55.545Z,23.00
2023-02-14T07:47:55.534Z,19.80
2023-02-14T07:48:55.527Z,18.80
2023-02-14T07:49:55.558Z,23.90
2023-02-14T07:50:55.508Z,23.70
2023-02-14T07:51:55.515Z,23.50
2023-02-14T07:52:55.496Z,21.40
2023-02-14T07:53:55.480Z,21.50
2023-02-14T07:54:55.492Z,21.50
2023-02-14T07:55:55.492Z,25.80
2023-02-14T07:56:55.438Z,20.80
2023-02-14T07:57:55.440Z,19.40
2023-02-14T07:58:55.427Z,23.00
2023-02-14T07:59:55.439Z,39.10
2023-02-14T08:00:55.412Z,24.70
2023-02-14T08:01:55.427Z,31.80
2023-02-14T08:02:55.381Z,24.90
2023-02-14T08:03:55.386Z,30.20
2023-02-14T08:04:55.440Z,38.10
2023-02-14T08:05:55.382Z,31.10
2023-02-14T08:06:55.350Z,30.20
2023-02-14T08:07:55.355Z,35.80
2023-02-14T08:08:55.339Z,38.30
2023-02-14T08:09:55.355Z,31.60
2023-02-14T08:10:55.296Z,28.90
2023-02-14T08:11:55.300Z,32.00
2023-02-14T08:12:55.271Z,25.90
2023-02-14T08:13:55.271Z,36.10
2023-02-14T08:14:55.290Z,41.50
2023-02-14T08:15:55.316Z,34.40
2023-02-14T08:16:55.243Z,31.60
2023-02-14T08:17:55.220Z,29.70
2023-02-14T08:18:55.221Z,28.30
2023-02-14T08:19:55.224Z,33.10
2023-02-14T08:20:55.196Z,30.30
2023-02-14T08:21:55.183Z,32.20
2023-02-14T08:22:55.175Z,32.40
2023-02-14T08:23:55.160Z,55.30
2023-02-14T08:24:55.180Z,45.70
2023-02-14T08:25:55.145Z,54.50
2023-02-14T08:26:55.151Z,31.10
2023-02-14T08:27:55.144Z,33.70
2023-02-14T08:28:55.120Z,44.40
2023-02-14T08:29:55.147Z,42.40
2023-02-14T08:30:55.147Z,57.80
2023-02-14T08:31:55.203Z,58.90
2023-02-14T08:32:55.116Z,74.30
2023-02-14T08:33:55.054Z,34.80
2023-02-14T08:34:55.081Z,48.30
2023-02-14T08:35:55.042Z,42.10
2023-02-14T08:36:55.026Z,32.50
2023-02-14T08:37:55.019Z,29.60
2023-02-14T08:38:55.015Z,38.70
2023-02-14T08:39:55.016Z,39.40
2023-02-14T08:40:54.983Z,29.60
2023-02-14T08:41:54.992Z,87.60
2023-02-14T08:42:54.965Z,88.80
2023-02-14T08:43:54.969Z,81.90
2023-02-14T08:44:54.976Z,139.80
2023-02-14T08:45:54.939Z,120.80
2023-02-14T08:46:55.001Z,40.40
2023-02-14T08:47:54.931Z,30.90
2023-02-14T08:48:54.920Z,29.10
2023-02-14T08:49:54.928Z,96.10
2023-02-14T08:50:54.908Z,156.10
2023-02-14T08:51:54.872Z,31.00
2023-02-14T08:52:54.875Z,99.40
2023-02-14T08:53:54.851Z,53.70
2023-02-14T08:54:54.848Z,35.80
2023-02-14T08:55:54.852Z,128.30
2023-02-14T08:56:54.826Z,48.20
2023-02-14T08:57:54.808Z,85.40
2023-02-14T08:58:54.908Z,71.90
2023-02-14T08:59:54.837Z,49.90
2023-02-14T09:00:54.892Z,34.10
2023-02-14T09:01:54.770Z,37.10
2023-02-14T09:02:54.773Z,31.70
2023-02-14T09:03:54.785Z,150.40
2023-02-14T09:04:54.742Z,252.20
2023-02-14T09:05:54.749Z,110.50
2023-02-14T09:06:54.768Z,29.70
2023-02-14T09:07:54.713Z,32.30
2023-02-14T09:08:54.713Z,39.60
2023-02-14T09:09:54.688Z,33.60
2023-02-14T09:10:54.691Z,71.20
2023-02-14T09:11:54.689Z,64.70
2023-02-14T09:12:54.681Z,60.50
2023-02-14T09:13:54.646Z,56.10
2023-02-14T09:14:54.651Z,94.20
2023-02-14T09:15:54.847Z,78.20
2023-02-14T09:16:54.687Z,33.60
2023-02-14T09:17:54.604Z,37.20
2023-02-14T09:18:54.632Z,41.40
2023-02-14T09:19:54.593Z,33.10
2023-02-14T09:20:54.624Z,34.80
2023-02-14T09:21:54.575Z,61.90
2023-02-14T09:22:54.554Z,78.10
2023-02-14T09:23:54.559Z,68.30
2023-02-14T09:24:54.577Z,31.70
2023-02-14T09:25:54.539Z,47.70
2023-02-14T09:26:54.517Z,37.60
2023-02-14T09:27:54.501Z,30.70
2023-02-14T09:28:54.500Z,35.90
2023-02-14T09:29:54.507Z,31.80
2023-02-14T09:30:54.678Z,50.60
2023-02-14T09:31:54.571Z,67.50
2023-02-14T09:32:54.450Z,38.50
2023-02-14T09:33:54.449Z,52.20
2023-02-14T09:34:54.453Z,62.10
2023-02-14T09:35:54.441Z,70.80
2023-02-14T09:36:54.410Z,73.50
2023-02-14T09:37:54.393Z,46.90
2023-02-14T09:38:54.400Z,46.00
2023-02-14T09:39:54.384Z,48.00
2023-02-14T09:40:54.393Z,44.20
2023-02-14T09:41:54.372Z,54.40
2023-02-14T09:42:54.354Z,103.70
2023-02-14T09:43:54.344Z,86.20
2023-02-14T09:44:54.331Z,64.90
2023-02-14T09:45:54.466Z,59.40
2023-02-14T09:46:54.313Z,44.00
2023-02-14T09:47:54.310Z,32.50
2023-02-14T09:48:54.363Z,64.10
2023-02-14T09:49:54.440Z,42.60
2023-02-14T09:50:54.284Z,51.40
2023-02-14T09:51:54.252Z,36.30
2023-02-14T09:52:54.248Z,49.70
2023-02-14T09:53:54.245Z,31.40
2023-02-14T09:54:54.235Z,31.80
2023-02-14T09:55:54.237Z,35.50
2023-02-14T09:56:54.213Z,34.50
2023-02-14T09:57:54.203Z,35.70
2023-02-14T09:58:54.187Z,50.40
2023-02-14T09:59:54.172Z,45.80
2023-02-14T10:00:54.247Z,46.80
2023-02-14T10:01:54.166Z,43.40
2023-02-14T10:02:54.138Z,49.00
2023-02-14T10:03:54.128Z,36.80
2023-02-14T10:04:54.131Z,35.00
2023-02-14T10:05:54.130Z,29.10
2023-02-14T10:06:54.099Z,34.60
2023-02-14T10:07:54.091Z,37.30
2023-02-14T10:08:54.088Z,30.70
2023-02-14T10:09:54.072Z,31.90
2023-02-14T10:10:54.080Z,30.60
2023-02-14T10:11:54.040Z,34.10
2023-02-14T10:12:54.048Z,38.80
2023-02-14T10:13:54.020Z,34.60
2023-02-14T10:14:54.024Z,34.60
2023-02-14T10:15:54.022Z,34.30
2023-02-14T10:16:54.089Z,30.20
2023-02-14T10:17:53.986Z,29.00
2023-02-14T10:18:53.985Z,32.70
2023-02-14T10:19:53.966Z,30.20
2023-02-14T10:20:53.972Z,33.10
2023-02-14T10:21:53.944Z,35.90
2023-02-14T10:22:53.941Z,32.90
2023-02-14T10:23:53.931Z,28.20
2023-02-14T10:24:53.929Z,30.20
2023-02-14T10:25:53.924Z,34.30
2023-02-14T10:26:53.899Z,31.00
2023-02-14T10:27:53.876Z,39.70
2023-02-14T10:28:53.880Z,27.80
2023-02-14T10:29:53.924Z,28.80
2023-02-14T10:30:53.918Z,36.60
2023-02-14T10:31:53.870Z,28.80
2023-02-14T10:32:53.832Z,31.40
2023-02-14T10:33:56.454Z,30.30
2023-02-14T10:34:53.806Z,30.30
2023-02-14T10:35:53.816Z,36.60
2023-02-14T10:36:53.788Z,25.60
2023-02-14T10:37:53.785Z,31.50
2023-02-14T10:38:53.773Z,30.00
2023-02-14T10:39:53.749Z,33.10
2023-02-14T10:40:53.778Z,30.80
2023-02-14T10:41:53.736Z,27.20
2023-02-14T10:42:53.730Z,27.40
2023-02-14T10:43:53.709Z,30.00
2023-02-14T10:44:53.700Z,29.60
2023-02-14T10:45:53.817Z,28.30
2023-02-14T10:46:53.694Z,25.80
2023-02-14T10:47:53.677Z,27.60
2023-02-14T10:48:53.668Z,27.40
2023-02-14T10:49:53.653Z,24.90
2023-02-14T10:50:53.664Z,27.10
2023-02-14T10:51:53.629Z,24.30
2023-02-14T10:52:53.623Z,28.00
2023-02-14T10:53:53.612Z,22.80
2023-02-14T10:54:53.612Z,32.30
2023-02-14T10:55:53.605Z,27.90
2023-02-14T10:56:53.599Z,26.70
2023-02-14T10:57:53.563Z,33.90
2023-02-14T10:58:53.597Z,33.70
2023-02-14T10:59:53.560Z,33.50
2023-02-14T11:00:53.858Z,27.70
2023-02-14T11:01:53.537Z,29.60
2023-02-14T11:02:53.529Z,26.70
2023-02-14T11:03:53.577Z,25.00
2023-02-14T11:04:53.513Z,32.20
2023-02-14T11:05:53.499Z,36.40
2023-02-14T11:06:53.479Z,29.20
2023-02-14T11:07:53.461Z,29.90
2023-02-14T11:08:55.558Z,24.40
2023-02-14T11:09:53.449Z,29.30
2023-02-14T11:10:53.452Z,29.30
2023-02-14T11:11:53.426Z,40.20
2023-02-14T11:12:53.413Z,33.20
2023-02-14T11:13:53.404Z,40.40
2023-02-14T11:14:53.428Z,31.90
2023-02-14T11:15:53.412Z,30.10
2023-02-14T11:16:53.445Z,40.20
2023-02-14T11:17:53.373Z,37.30
2023-02-14T11:18:53.353Z,30.60
2023-02-14T11:19:53.343Z,39.60
2023-02-14T11:20:53.354Z,32.10
2023-02-14T11:21:53.328Z,27.80
2023-02-14T11:22:53.328Z,30.60
2023-02-14T11:23:53.294Z,30.20
2023-02-14T11:24:53.295Z,30.70
2023-02-14T11:25:53.294Z,30.70
2023-02-14T11:26:53.278Z,30.40
2023-02-14T11:27:53.245Z,29.50
2023-02-14T11:28:53.246Z,31.50
2023-02-14T11:29:53.314Z,28.80
2023-02-14T11:30:53.304Z,29.70
2023-02-14T11:31:53.382Z,31.90
2023-02-14T11:32:53.209Z,31.20
2023-02-14T11:33:53.196Z,29.00
2023-02-14T11:34:53.184Z,34.20
2023-02-14T11:35:53.194Z,34.70
2023-02-14T11:36:53.178Z,31.90
2023-02-14T11:37:53.149Z,30.30
2023-02-14T11:38:53.143Z,28.10
2023-02-14T11:39:53.121Z,27.00
2023-02-14T11:40:53.131Z,26.50
2023-02-14T11:41:53.121Z,31.10
2023-02-14T11:43:02.202Z,30.60
2023-02-14T11:43:54.076Z,32.90
2023-02-14T11:44:53.086Z,48.70
2023-02-14T11:45:53.099Z,29.70
2023-02-14T11:46:53.939Z,30.40
2023-02-14T11:47:53.043Z,30.30
2023-02-14T11:48:53.034Z,32.30
2023-02-14T11:49:53.024Z,27.80
2023-02-14T11:50:53.015Z,34.90
2023-02-14T11:51:53.027Z,28.10
2023-02-14T11:52:52.987Z,26.30
2023-02-14T11:53:52.996Z,32.80
2023-02-14T11:54:52.967Z,29.90
2023-02-14T11:55:52.961Z,29.10
2023-02-14T11:56:52.970Z,27.70
2023-02-14T11:57:52.933Z,32.60
2023-02-14T11:58:52.928Z,29.40
2023-02-14T11:59:52.920Z,28.10
2023-02-14T12:00:52.910Z,38.50
2023-02-14T12:01:52.911Z,26.60
2023-02-14T12:02:52.918Z,31.30
2023-02-14T12:03:52.875Z,27.80
2023-02-14T12:04:52.875Z,35.10
2023-02-14T12:05:52.853Z,25.40
2023-02-14T12:06:52.863Z,26.30
2023-02-14T12:07:52.834Z,24.30
2023-02-14T12:08:52.826Z,23.20
2023-02-14T12:09:52.821Z,25.80
2023-02-14T12:10:52.804Z,23.80
2023-02-14T12:11:52.804Z,21.90
2023-02-14T12:12:52.794Z,21.80
2023-02-14T12:13:52.767Z,21.80
2023-02-14T12:14:52.768Z,24.20
2023-02-14T12:15:52.783Z,27.10
2023-02-14T12:16:52.763Z,22.80
2023-02-14T12:17:52.750Z,27.70
2023-02-14T12:18:52.720Z,23.50
2023-02-14T12:19:52.712Z,27.80
2023-02-14T12:20:52.710Z,24.90
2023-02-14T12:21:52.710Z,26.80
2023-02-14T12:22:52.690Z,24.90
2023-02-14T12:23:52.671Z,24.30
2023-02-14T12:24:52.664Z,24.60
2023-02-14T12:25:52.674Z,26.30
2023-02-14T12:26:52.675Z,19.90
2023-02-14T12:27:52.625Z,20.50
2023-02-14T12:28:52.644Z,21.70
2023-02-14T12:29:52.669Z,26.00
2023-02-14T12:30:52.683Z,19.20
2023-02-14T12:31:52.730Z,23.00
2023-02-14T12:32:52.583Z,21.90
2023-02-14T12:33:52.593Z,25.00
2023-02-14T12:34:52.592Z,25.50
2023-02-14T12:35:52.541Z,20.50
2023-02-14T12:36:52.543Z,26.70
2023-02-14T12:38:02.663Z,22.00
2023-02-14T12:38:53.510Z,20.90
2023-02-14T12:39:52.507Z,21.20
2023-02-14T12:40:52.484Z,22.50
2023-02-14T12:41:52.493Z,26.20
2023-02-14T12:42:52.463Z,21.10
2023-02-14T12:43:52.474Z,21.30
2023-02-14T12:44:52.443Z,20.30
2023-02-14T12:45:52.447Z,23.80
2023-02-14T12:46:52.451Z,25.00
2023-02-14T12:47:52.415Z,23.00
2023-02-14T12:48:52.414Z,23.20
2023-02-14T12:49:52.408Z,24.60
2023-02-14T12:50:52.393Z,26.80